Aérodrome :
LOGIN :

S'inscrire | Disclaimer

   EN    FR    IT 

 










Légende :    VFR   VFR Marginal   IFR   IFR Intensif   IFR Très Intensif
Visi : 
Plafond : 
>= 8 km
>= 3000ft
5 à 8 km
1000 à 3000 ft
1500m à 5 km
500 à 1000 ft
800 à 1500m
200 à 500 ft
< 800m
< 200 ft
Symboles :   Orages  Brouillard  Fortes neiges  Fortes précipitations  Vent > 20 kt
SIGMETs :   Divers  Orages  Givrage  Turbulence  Onde Orograph.  Cendres Volcan.







- Altitude de l'aérodrome : 400 ft
- Code IATA : BNX


LQBK - Banja Luka

DERNIER METAR :
  • 181030Z 02002KT 9999 FEW007 19/12 Q1019 NOSIG

METARs EXPIRÉS :
  • 181000Z VRB02KT 9999 FEW005 17/13 Q1019 NOSIG
  • 180930Z VRB02KT 9999 FEW005 15/13 Q1019 NOSIG
  • 180900Z 30002KT 9999 3500N FEW003 14/13 Q1020 NOSIG
  • 180830Z 00000KT 6000 2000N BCFG FEW002 12/11 Q1020 BECMG NSW
  • 180800Z 00000KT 6000 1800N BCFG FEW002 11/10 Q1020 BECMG NSW

TAF TAF LQBK
Valide du 18 à 06h jusqu'au 19 à 06h UTC


180500Z 1806/1906 18005KT CAVOK TX23/1814Z TN08/1904Z
TEMPO 1806/1808 0400 FG BKN003
BECMG 1821/1823 4000 BR
PROB30
TEMPO 1900/1906 1200 BCFG
Pas de NOTAMs connus pour ce terrain.



MET'MAP, la Météo Aéronautique d'un coup d'oeil ! - Copyright ORBIFLY Décembre 2007 - Disclaimer

ORBIFLY MET'MAP TEAM :

Programmation & Développement : Alexandra Zaïnal
Conception & Développement : Baudouin d'Aumeries
Co-Programmation & Développement : Marc-Olivier Méhu
Soutien technique & logistique : Manuel Goepfert

Contact : metmap@orbifly.com




SOURCES & CREDITS :

   NOAA